KAL2126 RJAA-RKPC
Flight info
| Callsign | KAL2126 |
|---|---|
| Flight time | N/A |
| Altitude | 34000 |
| Route | REDEK2 REDEK Y60 HABAR Y602 MARCO Y28 DGC A595 SAMDO Y677 TAMNA TAMNA2M |
| Aircraft | A321/M-SDE3FGHIRWY/LB1 |
Departure
| Time | N/A |
|---|---|
| Airport | Narita International Airport (RJAA) |
Arrival
| Time | 2026-05-04 13:56 |
|---|---|
| Airport | Jeju International Airport (RKPC) |
| Time | Latitude | Longitude | Altitude | Speed | Heading |
|---|---|---|---|---|---|
| 2026-05-04 12:49 | 35.32584 | 139.05608 | 30354 ft | 369 kts | 259° |
| 2026-05-04 12:49 | 35.32430 | 139.02473 | 30578 ft | 368 kts | 259° |
| 2026-05-04 12:49 | 35.32278 | 138.99347 | 30858 ft | 367 kts | 259° |
| 2026-05-04 12:49 | 35.32126 | 138.96251 | 31114 ft | 367 kts | 259° |
| 2026-05-04 12:50 | 35.31973 | 138.93140 | 31351 ft | 366 kts | 259° |
| 2026-05-04 12:50 | 35.31819 | 138.90056 | 31592 ft | 365 kts | 259° |
| 2026-05-04 12:50 | 35.31665 | 138.86951 | 31835 ft | 365 kts | 259° |
| 2026-05-04 12:50 | 35.31510 | 138.83855 | 32081 ft | 364 kts | 259° |
| 2026-05-04 12:51 | 35.31355 | 138.80776 | 32327 ft | 362 kts | 258° |
| 2026-05-04 12:51 | 35.31196 | 138.77695 | 32518 ft | 362 kts | 258° |
| 2026-05-04 12:51 | 35.31037 | 138.74652 | 32703 ft | 362 kts | 258° |
| 2026-05-04 12:51 | 35.30877 | 138.71575 | 32967 ft | 362 kts | 258° |
| 2026-05-04 12:52 | 35.30717 | 138.68502 | 33236 ft | 361 kts | 258° |
| 2026-05-04 12:52 | 35.30557 | 138.65444 | 33514 ft | 360 kts | 258° |
| 2026-05-04 12:52 | 35.30397 | 138.62390 | 33746 ft | 360 kts | 258° |
| 2026-05-04 12:53 | 35.30077 | 138.56285 | 33846 ft | 359 kts | 258° |
| 2026-05-04 12:53 | 35.29754 | 138.50183 | 33850 ft | 359 kts | 258° |
| 2026-05-04 12:54 | 35.29425 | 138.44087 | 33856 ft | 358 kts | 258° |
| 2026-05-04 12:54 | 35.29152 | 138.39034 | 33861 ft | 357 kts | 258° |
| 2026-05-04 12:55 | 35.28761 | 138.31943 | 33858 ft | 357 kts | 258° |
| 2026-05-04 12:55 | 35.28484 | 138.26898 | 33859 ft | 357 kts | 257° |
| 2026-05-04 12:56 | 35.28147 | 138.20843 | 33866 ft | 357 kts | 257° |
| 2026-05-04 12:56 | 35.27806 | 138.14785 | 33863 ft | 356 kts | 257° |
| 2026-05-04 12:57 | 35.27463 | 138.08744 | 33872 ft | 356 kts | 258° |
| 2026-05-04 12:57 | 35.27118 | 138.02677 | 33880 ft | 357 kts | 258° |
| 2026-05-04 12:58 | 35.26902 | 137.98854 | 33876 ft | 355 kts | 257° |
| 2026-05-04 12:58 | 35.26555 | 137.92858 | 33884 ft | 355 kts | 257° |
| 2026-05-04 12:59 | 35.25114 | 137.70530 | 33901 ft | 350 kts | 256° |
| 2026-05-04 12:59 | 35.20786 | 137.47775 | 33954 ft | 345 kts | 246° |
| 2026-05-04 13:00 | 35.14436 | 137.25594 | 33965 ft | 345 kts | 245° |
| 2026-05-04 13:00 | 35.08061 | 137.03580 | 33965 ft | 343 kts | 245° |
| 2026-05-04 13:01 | 35.01663 | 136.81600 | 33988 ft | 343 kts | 245° |
| 2026-05-04 13:01 | 34.96088 | 136.59408 | 33992 ft | 344 kts | 247° |
| 2026-05-04 13:02 | 34.92043 | 136.43217 | 33990 ft | 343 kts | 247° |
| 2026-05-04 13:02 | 34.86461 | 136.21026 | 34003 ft | 345 kts | 247° |
| 2026-05-04 13:03 | 34.80813 | 135.98746 | 33999 ft | 343 kts | 247° |
| 2026-05-04 13:03 | 34.75159 | 135.76632 | 33985 ft | 340 kts | 247° |
| 2026-05-04 13:04 | 34.69498 | 135.54721 | 33992 ft | 340 kts | 247° |
| 2026-05-04 13:04 | 34.64389 | 135.32596 | 34006 ft | 341 kts | 251° |
| 2026-05-04 13:05 | 34.60315 | 135.10239 | 34037 ft | 341 kts | 251° |
| 2026-05-04 13:05 | 34.56263 | 134.87897 | 34063 ft | 339 kts | 251° |
| 2026-05-04 13:06 | 34.52371 | 134.66784 | 34068 ft | 338 kts | 251° |
| 2026-05-04 13:06 | 34.51347 | 134.61226 | 34071 ft | 337 kts | 251° |
| 2026-05-04 13:07 | 34.50320 | 134.55676 | 34073 ft | 337 kts | 251° |
| 2026-05-04 13:07 | 34.49292 | 134.50139 | 34075 ft | 337 kts | 251° |
| 2026-05-04 13:08 | 34.48272 | 134.44632 | 34072 ft | 337 kts | 251° |
| 2026-05-04 13:08 | 34.47238 | 134.39102 | 34075 ft | 337 kts | 251° |
| 2026-05-04 13:09 | 34.46198 | 134.33572 | 34075 ft | 336 kts | 251° |
| 2026-05-04 13:09 | 34.45158 | 134.28037 | 34085 ft | 337 kts | 251° |
| 2026-05-04 13:10 | 34.44119 | 134.22524 | 34087 ft | 335 kts | 251° |
| 2026-05-04 13:10 | 34.43079 | 134.17014 | 34096 ft | 335 kts | 251° |
| 2026-05-04 13:11 | 34.42035 | 134.11500 | 34099 ft | 335 kts | 251° |
| 2026-05-04 13:11 | 34.40997 | 134.06031 | 34100 ft | 335 kts | 250° |
| 2026-05-04 13:12 | 34.39945 | 134.00535 | 34097 ft | 335 kts | 250° |
| 2026-05-04 13:12 | 34.38897 | 133.95038 | 34099 ft | 335 kts | 251° |
| 2026-05-04 13:13 | 34.37851 | 133.89550 | 34097 ft | 335 kts | 251° |
| 2026-05-04 13:13 | 34.36301 | 133.81435 | 34097 ft | 334 kts | 251° |
| 2026-05-04 13:14 | 34.32059 | 133.59527 | 34097 ft | 335 kts | 251° |
| 2026-05-04 13:14 | 34.28473 | 133.37318 | 34103 ft | 336 kts | 252° |
| 2026-05-04 13:15 | 34.24836 | 133.15129 | 34102 ft | 336 kts | 253° |
| 2026-05-04 13:15 | 34.21181 | 132.92968 | 34106 ft | 337 kts | 253° |
| 2026-05-04 13:16 | 34.17475 | 132.70727 | 34108 ft | 339 kts | 254° |
| 2026-05-04 13:16 | 34.13708 | 132.48394 | 34092 ft | 340 kts | 254° |
| 2026-05-04 13:17 | 34.09883 | 132.25972 | 34097 ft | 342 kts | 254° |
| 2026-05-04 13:17 | 34.05534 | 132.03689 | 34087 ft | 341 kts | 251° |
| 2026-05-04 13:18 | 34.00544 | 131.81555 | 34105 ft | 342 kts | 252° |
| 2026-05-04 13:18 | 33.95593 | 131.59587 | 34096 ft | 342 kts | 252° |
| 2026-05-04 13:19 | 33.90567 | 131.37451 | 34087 ft | 343 kts | 251° |
| 2026-05-04 13:19 | 33.87645 | 131.24719 | 34091 ft | 343 kts | 251° |
| 2026-05-04 13:20 | 33.86409 | 131.19345 | 34097 ft | 343 kts | 251° |
| 2026-05-04 13:20 | 33.85254 | 131.14329 | 34096 ft | 343 kts | 251° |
| 2026-05-04 13:21 | 33.84049 | 131.09114 | 34096 ft | 344 kts | 251° |
| 2026-05-04 13:21 | 33.82777 | 131.03609 | 34097 ft | 344 kts | 251° |
| 2026-05-04 13:22 | 33.81508 | 130.98130 | 34097 ft | 343 kts | 251° |
| 2026-05-04 13:22 | 33.78946 | 130.87106 | 34106 ft | 344 kts | 251° |
| 2026-05-04 13:23 | 33.73772 | 130.65011 | 34097 ft | 343 kts | 251° |
| 2026-05-04 13:23 | 33.71848 | 130.53819 | 33998 ft | 355 kts | 267° |
| 2026-05-04 13:23 | 33.72389 | 130.42041 | 34161 ft | 350 kts | 265° |
| 2026-05-04 13:24 | 33.73275 | 130.18466 | 34137 ft | 353 kts | 265° |
| 2026-05-04 13:24 | 33.74138 | 129.94981 | 34124 ft | 352 kts | 265° |
| 2026-05-04 13:25 | 33.72879 | 129.60070 | 34085 ft | 346 kts | 257° |
| 2026-05-04 13:25 | 33.70427 | 129.37431 | 34089 ft | 347 kts | 257° |
| 2026-05-04 13:26 | 33.69803 | 129.31717 | 33793 ft | 340 kts | 257° |
| 2026-05-04 13:26 | 33.69500 | 129.28919 | 33294 ft | 336 kts | 257° |
| 2026-05-04 13:26 | 33.69193 | 129.26136 | 32651 ft | 336 kts | 257° |
| 2026-05-04 13:27 | 33.68881 | 129.23343 | 31932 ft | 339 kts | 257° |
| 2026-05-04 13:27 | 33.68566 | 129.20533 | 31195 ft | 342 kts | 258° |
| 2026-05-04 13:27 | 33.68254 | 129.17730 | 30439 ft | 345 kts | 258° |
| 2026-05-04 13:27 | 33.67938 | 129.14900 | 29659 ft | 348 kts | 258° |
| 2026-05-04 13:28 | 33.67616 | 129.12005 | 28835 ft | 351 kts | 258° |
| 2026-05-04 13:28 | 33.67292 | 129.09095 | 28282 ft | 354 kts | 259° |
| 2026-05-04 13:28 | 33.66961 | 129.06123 | 28098 ft | 362 kts | 259° |
| 2026-05-04 13:28 | 33.66626 | 129.03112 | 28075 ft | 366 kts | 259° |
| 2026-05-04 13:29 | 33.65947 | 128.97024 | 28081 ft | 369 kts | 259° |
| 2026-05-04 13:29 | 33.65254 | 128.90918 | 28081 ft | 369 kts | 259° |
| 2026-05-04 13:30 | 33.64570 | 128.84852 | 28081 ft | 369 kts | 259° |
| 2026-05-04 13:30 | 33.63879 | 128.78802 | 28081 ft | 368 kts | 259° |
| 2026-05-04 13:31 | 33.63176 | 128.72696 | 28087 ft | 370 kts | 259° |
| 2026-05-04 13:31 | 33.62476 | 128.66595 | 28078 ft | 367 kts | 259° |
| 2026-05-04 13:32 | 33.61780 | 128.60522 | 28066 ft | 368 kts | 259° |
| 2026-05-04 13:32 | 33.61080 | 128.54432 | 28064 ft | 368 kts | 259° |
| 2026-05-04 13:33 | 33.60374 | 128.48346 | 28053 ft | 369 kts | 259° |
| 2026-05-04 13:33 | 33.59656 | 128.42257 | 28061 ft | 369 kts | 259° |
| 2026-05-04 13:34 | 33.58942 | 128.36153 | 28074 ft | 369 kts | 259° |
| 2026-05-04 13:34 | 33.58227 | 128.30058 | 28077 ft | 369 kts | 259° |
| 2026-05-04 13:35 | 33.57204 | 128.20903 | 28077 ft | 370 kts | 260° |
| 2026-05-04 13:35 | 33.56873 | 128.17856 | 27857 ft | 366 kts | 260° |
| 2026-05-04 13:36 | 33.56540 | 128.14832 | 27020 ft | 368 kts | 260° |
| 2026-05-04 13:36 | 33.56197 | 128.11776 | 26210 ft | 370 kts | 260° |
| 2026-05-04 13:36 | 33.55857 | 128.08717 | 25456 ft | 371 kts | 261° |
| 2026-05-04 13:36 | 33.55513 | 128.05638 | 24691 ft | 373 kts | 261° |
| 2026-05-04 13:37 | 33.55165 | 128.02552 | 23936 ft | 374 kts | 262° |
| 2026-05-04 13:37 | 33.54818 | 127.99495 | 23208 ft | 376 kts | 262° |
| 2026-05-04 13:37 | 33.54467 | 127.96391 | 22525 ft | 375 kts | 262° |
| 2026-05-04 13:37 | 33.54230 | 127.94295 | 22091 ft | 375 kts | 262° |
| 2026-05-04 13:38 | 33.53766 | 127.90217 | 21264 ft | 372 kts | 263° |
| 2026-05-04 13:38 | 33.53416 | 127.87157 | 20677 ft | 369 kts | 263° |
| 2026-05-04 13:38 | 33.53068 | 127.84114 | 20077 ft | 367 kts | 263° |
| 2026-05-04 13:38 | 33.52720 | 127.81091 | 19501 ft | 364 kts | 263° |
| 2026-05-04 13:39 | 33.52372 | 127.78089 | 18913 ft | 362 kts | 263° |
| 2026-05-04 13:39 | 33.52026 | 127.75106 | 18330 ft | 360 kts | 263° |
| 2026-05-04 13:39 | 33.51684 | 127.72150 | 17748 ft | 358 kts | 264° |
| 2026-05-04 13:39 | 33.51344 | 127.69203 | 17173 ft | 356 kts | 264° |
| 2026-05-04 13:40 | 33.51009 | 127.66267 | 16587 ft | 355 kts | 264° |
| 2026-05-04 13:40 | 33.50671 | 127.63341 | 16038 ft | 353 kts | 264° |
| 2026-05-04 13:40 | 33.50334 | 127.60472 | 15487 ft | 352 kts | 264° |
| 2026-05-04 13:40 | 33.49988 | 127.57573 | 15174 ft | 352 kts | 264° |
| 2026-05-04 13:41 | 33.49759 | 127.55643 | 15124 ft | 352 kts | 264° |
| 2026-05-04 13:41 | 33.49415 | 127.52730 | 15149 ft | 355 kts | 264° |
| 2026-05-04 13:41 | 33.49069 | 127.49793 | 15146 ft | 356 kts | 264° |
| 2026-05-04 13:42 | 33.48380 | 127.43917 | 15152 ft | 356 kts | 264° |
| 2026-05-04 13:42 | 33.48034 | 127.40975 | 15155 ft | 356 kts | 264° |
| 2026-05-04 13:42 | 33.47683 | 127.38034 | 15156 ft | 356 kts | 263° |
| 2026-05-04 13:42 | 33.47232 | 127.34150 | 15130 ft | 354 kts | 266° |
| 2026-05-04 13:43 | 33.47260 | 127.32173 | 14860 ft | 349 kts | 279° |
| 2026-05-04 13:43 | 33.48040 | 127.29446 | 14331 ft | 347 kts | 300° |
| 2026-05-04 13:43 | 33.49614 | 127.27266 | 13788 ft | 349 kts | 321° |
| 2026-05-04 13:43 | 33.51713 | 127.25812 | 13249 ft | 350 kts | 331° |
| 2026-05-04 13:44 | 33.53877 | 127.24558 | 12721 ft | 349 kts | 332° |
| 2026-05-04 13:44 | 33.56055 | 127.23298 | 12205 ft | 347 kts | 331° |
| 2026-05-04 13:44 | 33.58023 | 127.21734 | 12011 ft | 332 kts | 316° |
| 2026-05-04 13:44 | 33.59427 | 127.19631 | 11884 ft | 318 kts | 298° |
| 2026-05-04 13:45 | 33.60186 | 127.17214 | 11751 ft | 302 kts | 282° |
| 2026-05-04 13:45 | 33.60487 | 127.14809 | 11319 ft | 286 kts | 279° |
| 2026-05-04 13:45 | 33.60760 | 127.12466 | 10609 ft | 281 kts | 279° |
| 2026-05-04 13:45 | 33.61030 | 127.10146 | 9822 ft | 280 kts | 279° |
| 2026-05-04 13:46 | 33.61301 | 127.07832 | 9027 ft | 280 kts | 279° |
| 2026-05-04 13:46 | 33.61571 | 127.05513 | 8252 ft | 280 kts | 279° |
| 2026-05-04 13:46 | 33.61827 | 127.03285 | 8031 ft | 258 kts | 279° |
| 2026-05-04 13:46 | 33.62064 | 127.01218 | 7661 ft | 245 kts | 280° |
| 2026-05-04 13:47 | 33.62294 | 126.99209 | 7117 ft | 241 kts | 280° |
| 2026-05-04 13:47 | 33.62523 | 126.97235 | 6544 ft | 238 kts | 280° |
| 2026-05-04 13:47 | 33.62752 | 126.95281 | 6024 ft | 236 kts | 280° |
| 2026-05-04 13:47 | 33.62981 | 126.93334 | 5576 ft | 234 kts | 280° |
| 2026-05-04 13:48 | 33.63205 | 126.91407 | 5159 ft | 233 kts | 280° |
| 2026-05-04 13:48 | 33.63424 | 126.89499 | 4963 ft | 224 kts | 280° |
| 2026-05-04 13:48 | 33.63631 | 126.87681 | 4741 ft | 217 kts | 280° |
| 2026-05-04 13:48 | 33.63829 | 126.85921 | 4563 ft | 209 kts | 280° |
| 2026-05-04 13:49 | 33.64022 | 126.84216 | 4474 ft | 206 kts | 281° |
| 2026-05-04 13:49 | 33.64217 | 126.82513 | 4377 ft | 204 kts | 280° |
| 2026-05-04 13:49 | 33.64411 | 126.80823 | 4272 ft | 205 kts | 281° |
| 2026-05-04 13:49 | 33.64603 | 126.79156 | 4189 ft | 204 kts | 281° |
| 2026-05-04 13:50 | 33.64793 | 126.77474 | 4094 ft | 203 kts | 279° |
| 2026-05-04 13:50 | 33.64657 | 126.75758 | 4030 ft | 207 kts | 256° |
| 2026-05-04 13:50 | 33.64013 | 126.74226 | 4042 ft | 211 kts | 242° |
| 2026-05-04 13:50 | 33.63260 | 126.72760 | 4026 ft | 194 kts | 242° |
| 2026-05-04 13:51 | 33.62604 | 126.71484 | 4031 ft | 166 kts | 243° |
| 2026-05-04 13:51 | 33.62018 | 126.70335 | 3932 ft | 160 kts | 244° |
| 2026-05-04 13:51 | 33.61448 | 126.69218 | 3778 ft | 156 kts | 243° |
| 2026-05-04 13:51 | 33.60884 | 126.68111 | 3561 ft | 156 kts | 243° |
| 2026-05-04 13:52 | 33.59759 | 126.65910 | 3171 ft | 154 kts | 244° |
| 2026-05-04 13:52 | 33.59203 | 126.64822 | 2949 ft | 153 kts | 244° |
| 2026-05-04 13:52 | 33.58651 | 126.63743 | 2762 ft | 151 kts | 243° |
| 2026-05-04 13:53 | 33.58103 | 126.62673 | 2556 ft | 149 kts | 242° |
| 2026-05-04 13:53 | 33.57562 | 126.61615 | 2371 ft | 148 kts | 241° |
| 2026-05-04 13:53 | 33.57027 | 126.60569 | 2182 ft | 147 kts | 240° |
| 2026-05-04 13:54 | 33.55961 | 126.58488 | 1776 ft | 146 kts | 239° |
| 2026-05-04 13:54 | 33.55432 | 126.57457 | 1580 ft | 146 kts | 239° |
| 2026-05-04 13:54 | 33.54371 | 126.55386 | 1189 ft | 146 kts | 238° |
| 2026-05-04 13:55 | 33.53839 | 126.54349 | 1000 ft | 146 kts | 237° |
| 2026-05-04 13:55 | 33.52784 | 126.52293 | 613 ft | 145 kts | 237° |
| 2026-05-04 13:55 | 33.52252 | 126.51264 | 413 ft | 145 kts | 237° |
| 2026-05-04 13:56 | 33.51727 | 126.50230 | 235 ft | 145 kts | 238° |
| 2026-05-04 13:56 | 33.51205 | 126.49209 | 90 ft | 137 kts | 237° |
| 2026-05-04 13:56 | 33.50607 | 126.48187 | 92 ft | 28 kts | 207° |
| 2026-05-04 13:57 | 33.50529 | 126.48172 | 92 ft | 4 kts | 143° |
| 2026-05-04 13:57 | 33.50515 | 126.48201 | 92 ft | 5 kts | 102° |
| 2026-05-04 13:58 | 33.50535 | 126.48291 | 92 ft | 1 kts | 79° |
| 2026-05-04 13:58 | 33.50468 | 126.48386 | 94 ft | 10 kts | 148° |
| 2026-05-04 13:58 | 33.50446 | 126.48466 | 93 ft | 13 kts | 85° |
| 2026-05-04 13:59 | 33.50413 | 126.48508 | 91 ft | 6 kts | 149° |
| 2026-05-04 13:59 | 33.50407 | 126.48512 | 92 ft | 0 kts | 149° |